sensor_id;sensor_type;location;lat;lon;timestamp;temperature;humidity
10316;DHT22;5203;48.976;8.306;2023-05-28T00:00:29;18.60;51.60
10316;DHT22;5203;48.976;8.306;2023-05-28T00:02:55;18.50;51.80
10316;DHT22;5203;48.976;8.306;2023-05-28T00:05:22;18.50;51.40
10316;DHT22;5203;48.976;8.306;2023-05-28T00:07:48;18.50;51.80
10316;DHT22;5203;48.976;8.306;2023-05-28T00:10:14;18.40;52.60
10316;DHT22;5203;48.976;8.306;2023-05-28T00:12:39;18.40;51.80
10316;DHT22;5203;48.976;8.306;2023-05-28T00:15:05;18.40;52.40
10316;DHT22;5203;48.976;8.306;2023-05-28T00:17:31;18.20;53.40
10316;DHT22;5203;48.976;8.306;2023-05-28T00:20:02;18.20;52.70
10316;DHT22;5203;48.976;8.306;2023-05-28T00:22:29;18.10;52.60
10316;DHT22;5203;48.976;8.306;2023-05-28T00:24:55;18.10;51.90
10316;DHT22;5203;48.976;8.306;2023-05-28T00:27:20;18.00;50.70
10316;DHT22;5203;48.976;8.306;2023-05-28T00:29:46;18.10;50.80
10316;DHT22;5203;48.976;8.306;2023-05-28T00:32:12;18.20;50.50
10316;DHT22;5203;48.976;8.306;2023-05-28T00:34:38;18.30;49.00
10316;DHT22;5203;48.976;8.306;2023-05-28T00:37:04;18.20;48.30
10316;DHT22;5203;48.976;8.306;2023-05-28T00:39:30;17.80;49.90
10316;DHT22;5203;48.976;8.306;2023-05-28T00:42:03;17.70;50.40
10316;DHT22;5203;48.976;8.306;2023-05-28T00:44:32;17.70;50.20
10316;DHT22;5203;48.976;8.306;2023-05-28T00:46:58;17.60;49.90
10316;DHT22;5203;48.976;8.306;2023-05-28T00:49:25;17.80;50.10
10316;DHT22;5203;48.976;8.306;2023-05-28T00:51:51;17.80;49.00
10316;DHT22;5203;48.976;8.306;2023-05-28T00:54:17;17.80;49.30
10316;DHT22;5203;48.976;8.306;2023-05-28T00:56:43;17.80;49.70
10316;DHT22;5203;48.976;8.306;2023-05-28T00:59:10;17.70;49.80
10316;DHT22;5203;48.976;8.306;2023-05-28T01:01:36;17.60;49.90
10316;DHT22;5203;48.976;8.306;2023-05-28T01:04:03;17.70;50.50
10316;DHT22;5203;48.976;8.306;2023-05-28T01:06:29;17.70;49.90
10316;DHT22;5203;48.976;8.306;2023-05-28T01:08:55;17.60;50.70
10316;DHT22;5203;48.976;8.306;2023-05-28T01:11:23;17.60;50.30
10316;DHT22;5203;48.976;8.306;2023-05-28T01:13:49;17.60;50.40
10316;DHT22;5203;48.976;8.306;2023-05-28T01:16:16;17.50;50.50
10316;DHT22;5203;48.976;8.306;2023-05-28T01:18:42;17.30;51.00
10316;DHT22;5203;48.976;8.306;2023-05-28T01:21:10;17.10;51.70
10316;DHT22;5203;48.976;8.306;2023-05-28T01:23:44;17.10;52.00
10316;DHT22;5203;48.976;8.306;2023-05-28T01:26:19;17.00;52.40
10316;DHT22;5203;48.976;8.306;2023-05-28T01:28:45;16.90;52.60
10316;DHT22;5203;48.976;8.306;2023-05-28T01:31:12;16.80;52.60
10316;DHT22;5203;48.976;8.306;2023-05-28T01:33:38;16.70;52.90
10316;DHT22;5203;48.976;8.306;2023-05-28T01:36:14;16.60;53.40
10316;DHT22;5203;48.976;8.306;2023-05-28T01:38:42;16.40;53.80
10316;DHT22;5203;48.976;8.306;2023-05-28T01:41:13;16.50;53.70
10316;DHT22;5203;48.976;8.306;2023-05-28T01:43:40;16.70;53.10
10316;DHT22;5203;48.976;8.306;2023-05-28T01:46:07;16.80;52.50
10316;DHT22;5203;48.976;8.306;2023-05-28T01:48:34;16.70;52.70
10316;DHT22;5203;48.976;8.306;2023-05-28T01:51:00;16.70;52.50
10316;DHT22;5203;48.976;8.306;2023-05-28T01:53:25;16.60;52.90
10316;DHT22;5203;48.976;8.306;2023-05-28T01:55:51;16.70;53.10
10316;DHT22;5203;48.976;8.306;2023-05-28T01:58:17;16.80;52.70
10316;DHT22;5203;48.976;8.306;2023-05-28T02:00:48;16.80;52.70
10316;DHT22;5203;48.976;8.306;2023-05-28T02:03:17;16.70;52.70
10316;DHT22;5203;48.976;8.306;2023-05-28T02:05:43;16.50;53.20
10316;DHT22;5203;48.976;8.306;2023-05-28T02:08:08;16.40;53.80
10316;DHT22;5203;48.976;8.306;2023-05-28T02:10:34;16.40;53.80
10316;DHT22;5203;48.976;8.306;2023-05-28T02:13:00;16.40;53.90
10316;DHT22;5203;48.976;8.306;2023-05-28T02:15:26;16.30;54.10
10316;DHT22;5203;48.976;8.306;2023-05-28T02:17:51;16.30;54.30
10316;DHT22;5203;48.976;8.306;2023-05-28T02:20:17;16.30;54.50
10316;DHT22;5203;48.976;8.306;2023-05-28T02:22:43;16.20;54.50
10316;DHT22;5203;48.976;8.306;2023-05-28T02:25:08;16.30;54.40
10316;DHT22;5203;48.976;8.306;2023-05-28T02:27:34;16.10;55.00
10316;DHT22;5203;48.976;8.306;2023-05-28T02:30:01;16.00;55.50
10316;DHT22;5203;48.976;8.306;2023-05-28T02:32:27;16.20;55.30
10316;DHT22;5203;48.976;8.306;2023-05-28T02:34:52;16.20;55.00
10316;DHT22;5203;48.976;8.306;2023-05-28T02:37:20;16.10;55.20
10316;DHT22;5203;48.976;8.306;2023-05-28T02:39:49;16.00;55.50
10316;DHT22;5203;48.976;8.306;2023-05-28T02:42:15;15.90;56.10
10316;DHT22;5203;48.976;8.306;2023-05-28T02:44:41;15.80;56.50
10316;DHT22;5203;48.976;8.306;2023-05-28T02:47:07;15.90;56.40
10316;DHT22;5203;48.976;8.306;2023-05-28T02:49:32;16.00;56.00
10316;DHT22;5203;48.976;8.306;2023-05-28T02:51:58;16.00;55.70
10316;DHT22;5203;48.976;8.306;2023-05-28T02:54:23;15.90;55.90
10316;DHT22;5203;48.976;8.306;2023-05-28T02:56:49;16.00;55.90
10316;DHT22;5203;48.976;8.306;2023-05-28T02:59:15;16.00;56.20
10316;DHT22;5203;48.976;8.306;2023-05-28T03:01:40;16.00;55.80
10316;DHT22;5203;48.976;8.306;2023-05-28T03:04:06;16.10;55.90
10316;DHT22;5203;48.976;8.306;2023-05-28T03:06:31;16.10;55.90
10316;DHT22;5203;48.976;8.306;2023-05-28T03:08:58;16.20;55.60
10316;DHT22;5203;48.976;8.306;2023-05-28T03:11:24;16.00;57.10
10316;DHT22;5203;48.976;8.306;2023-05-28T03:13:50;16.00;56.20
10316;DHT22;5203;48.976;8.306;2023-05-28T03:16:16;16.10;56.50
10316;DHT22;5203;48.976;8.306;2023-05-28T03:18:41;16.20;56.20
10316;DHT22;5203;48.976;8.306;2023-05-28T03:21:07;16.10;56.10
10316;DHT22;5203;48.976;8.306;2023-05-28T03:23:33;16.00;56.40
10316;DHT22;5203;48.976;8.306;2023-05-28T03:25:58;16.10;56.90
10316;DHT22;5203;48.976;8.306;2023-05-28T03:28:24;16.00;56.70
10316;DHT22;5203;48.976;8.306;2023-05-28T03:30:50;15.80;57.20
10316;DHT22;5203;48.976;8.306;2023-05-28T03:33:16;15.70;58.10
10316;DHT22;5203;48.976;8.306;2023-05-28T03:35:41;15.40;59.40
10316;DHT22;5203;48.976;8.306;2023-05-28T03:38:07;15.20;60.50
10316;DHT22;5203;48.976;8.306;2023-05-28T03:40:33;15.10;61.10
10316;DHT22;5203;48.976;8.306;2023-05-28T03:42:58;15.10;61.30
10316;DHT22;5203;48.976;8.306;2023-05-28T03:45:24;15.00;61.90
10316;DHT22;5203;48.976;8.306;2023-05-28T03:47:50;14.90;62.30
10316;DHT22;5203;48.976;8.306;2023-05-28T03:50:15;15.00;62.10
10316;DHT22;5203;48.976;8.306;2023-05-28T03:52:41;15.00;62.00
10316;DHT22;5203;48.976;8.306;2023-05-28T03:55:07;15.00;61.90
10316;DHT22;5203;48.976;8.306;2023-05-28T03:57:33;15.10;61.50
10316;DHT22;5203;48.976;8.306;2023-05-28T03:59:59;15.00;62.10
10316;DHT22;5203;48.976;8.306;2023-05-28T04:02:24;15.00;62.50
10316;DHT22;5203;48.976;8.306;2023-05-28T04:04:51;14.90;62.70
10316;DHT22;5203;48.976;8.306;2023-05-28T04:07:16;14.90;62.50
10316;DHT22;5203;48.976;8.306;2023-05-28T04:09:42;15.00;62.50
10316;DHT22;5203;48.976;8.306;2023-05-28T04:12:08;14.90;62.80
10316;DHT22;5203;48.976;8.306;2023-05-28T04:14:34;14.90;63.10
10316;DHT22;5203;48.976;8.306;2023-05-28T04:16:59;14.90;63.10
10316;DHT22;5203;48.976;8.306;2023-05-28T04:19:25;15.00;62.90
10316;DHT22;5203;48.976;8.306;2023-05-28T04:21:51;15.00;63.10
10316;DHT22;5203;48.976;8.306;2023-05-28T04:24:16;14.90;64.10
10316;DHT22;5203;48.976;8.306;2023-05-28T04:26:42;14.70;64.40
10316;DHT22;5203;48.976;8.306;2023-05-28T04:29:08;14.70;65.20
10316;DHT22;5203;48.976;8.306;2023-05-28T04:31:33;14.60;65.50
10316;DHT22;5203;48.976;8.306;2023-05-28T04:33:59;14.60;65.60
10316;DHT22;5203;48.976;8.306;2023-05-28T04:36:25;14.50;66.60
10316;DHT22;5203;48.976;8.306;2023-05-28T04:38:55;14.40;67.10
10316;DHT22;5203;48.976;8.306;2023-05-28T04:41:23;14.50;67.30
10316;DHT22;5203;48.976;8.306;2023-05-28T04:43:49;14.40;67.50
10316;DHT22;5203;48.976;8.306;2023-05-28T04:46:14;14.50;67.40
10316;DHT22;5203;48.976;8.306;2023-05-28T04:48:40;14.50;67.10
10316;DHT22;5203;48.976;8.306;2023-05-28T04:51:07;14.60;67.10
10316;DHT22;5203;48.976;8.306;2023-05-28T04:53:33;14.50;67.70
10316;DHT22;5203;48.976;8.306;2023-05-28T04:56:01;14.50;67.70
10316;DHT22;5203;48.976;8.306;2023-05-28T04:58:29;14.70;67.20
10316;DHT22;5203;48.976;8.306;2023-05-28T05:00:55;14.70;67.10
10316;DHT22;5203;48.976;8.306;2023-05-28T05:03:21;14.60;67.20
10316;DHT22;5203;48.976;8.306;2023-05-28T05:05:46;14.70;67.60
10316;DHT22;5203;48.976;8.306;2023-05-28T05:08:13;14.80;67.30
10316;DHT22;5203;48.976;8.306;2023-05-28T05:10:39;14.80;67.30
10316;DHT22;5203;48.976;8.306;2023-05-28T05:13:05;14.80;67.50
10316;DHT22;5203;48.976;8.306;2023-05-28T05:15:31;14.70;67.40
10316;DHT22;5203;48.976;8.306;2023-05-28T05:17:58;14.70;67.50
10316;DHT22;5203;48.976;8.306;2023-05-28T05:20:23;14.80;67.20
10316;DHT22;5203;48.976;8.306;2023-05-28T05:22:49;14.80;67.90
10316;DHT22;5203;48.976;8.306;2023-05-28T05:25:15;14.80;66.90
10316;DHT22;5203;48.976;8.306;2023-05-28T05:27:41;14.90;66.80
10316;DHT22;5203;48.976;8.306;2023-05-28T05:30:07;15.10;66.20
10316;DHT22;5203;48.976;8.306;2023-05-28T05:32:33;15.10;66.10
10316;DHT22;5203;48.976;8.306;2023-05-28T05:34:59;15.20;65.80
10316;DHT22;5203;48.976;8.306;2023-05-28T05:37:24;15.20;65.70
10316;DHT22;5203;48.976;8.306;2023-05-28T05:39:50;15.30;65.30
10316;DHT22;5203;48.976;8.306;2023-05-28T05:42:15;15.30;64.80
10316;DHT22;5203;48.976;8.306;2023-05-28T05:44:41;15.40;64.40
10316;DHT22;5203;48.976;8.306;2023-05-28T05:47:07;15.40;64.60
10316;DHT22;5203;48.976;8.306;2023-05-28T05:49:32;15.50;63.90
10316;DHT22;5203;48.976;8.306;2023-05-28T05:51:58;15.60;63.50
10316;DHT22;5203;48.976;8.306;2023-05-28T05:54:24;15.60;63.80
10316;DHT22;5203;48.976;8.306;2023-05-28T05:56:49;15.70;63.50
10316;DHT22;5203;48.976;8.306;2023-05-28T05:59:18;15.70;63.20
10316;DHT22;5203;48.976;8.306;2023-05-28T06:01:43;15.80;62.50
10316;DHT22;5203;48.976;8.306;2023-05-28T06:04:09;15.80;62.10
10316;DHT22;5203;48.976;8.306;2023-05-28T06:06:34;16.00;61.30
10316;DHT22;5203;48.976;8.306;2023-05-28T06:09:02;16.00;61.00
10316;DHT22;5203;48.976;8.306;2023-05-28T06:11:27;16.00;60.80
10316;DHT22;5203;48.976;8.306;2023-05-28T06:13:54;16.00;60.80
10316;DHT22;5203;48.976;8.306;2023-05-28T06:16:19;16.10;60.60
10316;DHT22;5203;48.976;8.306;2023-05-28T06:18:45;16.20;60.20
10316;DHT22;5203;48.976;8.306;2023-05-28T06:21:11;16.20;59.50
10316;DHT22;5203;48.976;8.306;2023-05-28T06:23:37;16.30;59.10
10316;DHT22;5203;48.976;8.306;2023-05-28T06:26:02;16.50;58.80
10316;DHT22;5203;48.976;8.306;2023-05-28T06:28:29;16.70;59.00
10316;DHT22;5203;48.976;8.306;2023-05-28T06:30:54;16.80;58.50
10316;DHT22;5203;48.976;8.306;2023-05-28T06:33:20;16.90;58.40
10316;DHT22;5203;48.976;8.306;2023-05-28T06:35:46;16.90;57.20
10316;DHT22;5203;48.976;8.306;2023-05-28T06:38:11;16.90;57.10
10316;DHT22;5203;48.976;8.306;2023-05-28T06:40:37;16.90;58.00
10316;DHT22;5203;48.976;8.306;2023-05-28T06:43:03;16.80;58.50
10316;DHT22;5203;48.976;8.306;2023-05-28T06:45:28;16.80;58.30
10316;DHT22;5203;48.976;8.306;2023-05-28T06:47:54;17.00;57.40
10316;DHT22;5203;48.976;8.306;2023-05-28T06:50:20;17.10;57.50
10316;DHT22;5203;48.976;8.306;2023-05-28T06:52:45;17.10;56.80
10316;DHT22;5203;48.976;8.306;2023-05-28T06:55:11;17.20;56.80
10316;DHT22;5203;48.976;8.306;2023-05-28T06:57:37;17.50;54.90
10316;DHT22;5203;48.976;8.306;2023-05-28T07:00:04;17.50;54.00
10316;DHT22;5203;48.976;8.306;2023-05-28T07:02:44;17.70;53.10
10316;DHT22;5203;48.976;8.306;2023-05-28T07:05:10;17.90;53.40
10316;DHT22;5203;48.976;8.306;2023-05-28T07:07:35;17.90;53.60
10316;DHT22;5203;48.976;8.306;2023-05-28T07:10:02;18.00;54.10
10316;DHT22;5203;48.976;8.306;2023-05-28T07:12:28;18.00;52.50
10316;DHT22;5203;48.976;8.306;2023-05-28T07:14:54;18.20;53.20
10316;DHT22;5203;48.976;8.306;2023-05-28T07:17:20;18.10;51.70
10316;DHT22;5203;48.976;8.306;2023-05-28T07:19:46;17.90;52.10
10316;DHT22;5203;48.976;8.306;2023-05-28T07:22:12;17.90;53.20
10316;DHT22;5203;48.976;8.306;2023-05-28T07:24:38;18.10;52.50
10316;DHT22;5203;48.976;8.306;2023-05-28T07:27:03;18.20;52.40
10316;DHT22;5203;48.976;8.306;2023-05-28T07:29:29;18.20;50.40
10316;DHT22;5203;48.976;8.306;2023-05-28T07:31:55;18.20;51.90
10316;DHT22;5203;48.976;8.306;2023-05-28T07:34:21;18.40;52.00
10316;DHT22;5203;48.976;8.306;2023-05-28T07:36:46;18.40;52.20
10316;DHT22;5203;48.976;8.306;2023-05-28T07:39:12;18.40;51.50
10316;DHT22;5203;48.976;8.306;2023-05-28T07:41:38;18.50;51.50
10316;DHT22;5203;48.976;8.306;2023-05-28T07:44:04;18.70;50.10
10316;DHT22;5203;48.976;8.306;2023-05-28T07:46:32;18.70;50.30
10316;DHT22;5203;48.976;8.306;2023-05-28T07:48:57;18.80;51.00
10316;DHT22;5203;48.976;8.306;2023-05-28T07:51:23;18.90;49.70
10316;DHT22;5203;48.976;8.306;2023-05-28T07:53:49;19.10;48.70
10316;DHT22;5203;48.976;8.306;2023-05-28T07:56:14;19.20;48.00
10316;DHT22;5203;48.976;8.306;2023-05-28T07:58:43;19.40;47.50
10316;DHT22;5203;48.976;8.306;2023-05-28T08:01:09;19.60;47.60
10316;DHT22;5203;48.976;8.306;2023-05-28T08:03:35;19.50;47.20
10316;DHT22;5203;48.976;8.306;2023-05-28T08:06:02;19.70;47.20
10316;DHT22;5203;48.976;8.306;2023-05-28T08:08:28;19.70;47.20
10316;DHT22;5203;48.976;8.306;2023-05-28T08:10:53;19.80;46.50
10316;DHT22;5203;48.976;8.306;2023-05-28T08:13:19;19.90;45.60
10316;DHT22;5203;48.976;8.306;2023-05-28T08:15:45;19.90;46.40
10316;DHT22;5203;48.976;8.306;2023-05-28T08:18:11;20.10;46.50
10316;DHT22;5203;48.976;8.306;2023-05-28T08:20:37;20.20;45.90
10316;DHT22;5203;48.976;8.306;2023-05-28T08:23:02;20.30;46.10
10316;DHT22;5203;48.976;8.306;2023-05-28T08:25:28;20.40;46.60
10316;DHT22;5203;48.976;8.306;2023-05-28T08:27:54;20.70;46.30
10316;DHT22;5203;48.976;8.306;2023-05-28T08:30:19;20.80;44.90
10316;DHT22;5203;48.976;8.306;2023-05-28T08:32:45;20.80;44.60
10316;DHT22;5203;48.976;8.306;2023-05-28T08:35:11;20.60;45.30
10316;DHT22;5203;48.976;8.306;2023-05-28T08:37:38;20.50;44.60
10316;DHT22;5203;48.976;8.306;2023-05-28T08:40:05;20.70;45.40
10316;DHT22;5203;48.976;8.306;2023-05-28T08:42:37;21.00;44.00
10316;DHT22;5203;48.976;8.306;2023-05-28T08:45:03;21.20;44.20
10316;DHT22;5203;48.976;8.306;2023-05-28T08:47:32;21.40;42.60
10316;DHT22;5203;48.976;8.306;2023-05-28T08:50:06;21.60;42.70
10316;DHT22;5203;48.976;8.306;2023-05-28T08:52:33;21.70;42.00
10316;DHT22;5203;48.976;8.306;2023-05-28T08:54:59;21.80;40.70
10316;DHT22;5203;48.976;8.306;2023-05-28T08:57:26;21.90;40.40
10316;DHT22;5203;48.976;8.306;2023-05-28T08:59:53;21.90;41.00
10316;DHT22;5203;48.976;8.306;2023-05-28T09:02:24;22.00;41.60
10316;DHT22;5203;48.976;8.306;2023-05-28T09:04:50;22.20;40.80
10316;DHT22;5203;48.976;8.306;2023-05-28T09:07:16;22.20;40.20
10316;DHT22;5203;48.976;8.306;2023-05-28T09:09:42;22.20;40.40
10316;DHT22;5203;48.976;8.306;2023-05-28T09:12:12;22.30;40.50
10316;DHT22;5203;48.976;8.306;2023-05-28T09:14:39;22.30;40.60
10316;DHT22;5203;48.976;8.306;2023-05-28T09:17:05;22.60;39.40
10316;DHT22;5203;48.976;8.306;2023-05-28T09:19:34;22.70;39.30
10316;DHT22;5203;48.976;8.306;2023-05-28T09:22:00;22.90;39.10
10316;DHT22;5203;48.976;8.306;2023-05-28T09:24:27;23.00;38.90
10316;DHT22;5203;48.976;8.306;2023-05-28T09:26:57;23.30;38.50
10316;DHT22;5203;48.976;8.306;2023-05-28T09:29:24;23.60;38.40
10316;DHT22;5203;48.976;8.306;2023-05-28T09:31:57;23.80;37.60
10316;DHT22;5203;48.976;8.306;2023-05-28T09:34:30;23.90;37.40
10316;DHT22;5203;48.976;8.306;2023-05-28T09:37:17;23.70;36.70
10316;DHT22;5203;48.976;8.306;2023-05-28T09:40:12;23.80;37.00
10316;DHT22;5203;48.976;8.306;2023-05-28T09:43:26;24.00;36.70
10316;DHT22;5203;48.976;8.306;2023-05-28T09:49:16;24.30;37.50
10316;DHT22;5203;48.976;8.306;2023-05-28T09:51:52;24.70;36.60
10316;DHT22;5203;48.976;8.306;2023-05-28T09:54:21;24.60;35.70
10316;DHT22;5203;48.976;8.306;2023-05-28T09:57:11;24.90;36.00
10316;DHT22;5203;48.976;8.306;2023-05-28T09:59:38;25.00;36.30
10316;DHT22;5203;48.976;8.306;2023-05-28T10:05:32;25.40;35.20
10316;DHT22;5203;48.976;8.306;2023-05-28T10:08:23;25.20;36.00
10316;DHT22;5203;48.976;8.306;2023-05-28T10:10:53;25.20;34.00
10316;DHT22;5203;48.976;8.306;2023-05-28T10:13:51;25.00;34.40
10316;DHT22;5203;48.976;8.306;2023-05-28T10:16:19;25.20;34.70
10316;DHT22;5203;48.976;8.306;2023-05-28T10:18:48;25.40;33.80
10316;DHT22;5203;48.976;8.306;2023-05-28T10:21:29;25.60;32.30
10316;DHT22;5203;48.976;8.306;2023-05-28T10:23:58;26.00;30.40
10316;DHT22;5203;48.976;8.306;2023-05-28T10:26:35;26.20;29.80
10316;DHT22;5203;48.976;8.306;2023-05-28T10:29:06;26.40;29.70
10316;DHT22;5203;48.976;8.306;2023-05-28T10:31:33;26.60;29.20
10316;DHT22;5203;48.976;8.306;2023-05-28T10:34:15;26.20;31.30
10316;DHT22;5203;48.976;8.306;2023-05-28T10:36:52;25.90;31.90
10316;DHT22;5203;48.976;8.306;2023-05-28T10:39:18;26.20;31.50
10316;DHT22;5203;48.976;8.306;2023-05-28T10:41:44;26.40;30.60
10316;DHT22;5203;48.976;8.306;2023-05-28T10:44:09;26.50;30.30
10316;DHT22;5203;48.976;8.306;2023-05-28T10:46:38;26.80;29.70
10316;DHT22;5203;48.976;8.306;2023-05-28T10:54:44;27.30;28.90
10316;DHT22;5203;48.976;8.306;2023-05-28T10:57:47;27.40;29.10
10316;DHT22;5203;48.976;8.306;2023-05-28T11:06:59;28.20;27.50
10316;DHT22;5203;48.976;8.306;2023-05-28T11:09:30;27.90;27.40
10316;DHT22;5203;48.976;8.306;2023-05-28T11:12:14;27.90;27.80
10316;DHT22;5203;48.976;8.306;2023-05-28T11:14:47;27.90;27.70
10316;DHT22;5203;48.976;8.306;2023-05-28T11:17:13;27.80;28.20
10316;DHT22;5203;48.976;8.306;2023-05-28T11:19:40;27.90;28.40
10316;DHT22;5203;48.976;8.306;2023-05-28T11:22:09;28.00;28.40
10316;DHT22;5203;48.976;8.306;2023-05-28T11:27:22;28.50;27.70
10316;DHT22;5203;48.976;8.306;2023-05-28T11:29:56;28.60;27.60
10316;DHT22;5203;48.976;8.306;2023-05-28T11:32:24;28.20;27.70
10316;DHT22;5203;48.976;8.306;2023-05-28T11:34:51;28.40;27.90
10316;DHT22;5203;48.976;8.306;2023-05-28T11:37:24;28.90;27.00
10316;DHT22;5203;48.976;8.306;2023-05-28T11:39:58;29.30;26.90
10316;DHT22;5203;48.976;8.306;2023-05-28T11:42:32;29.00;26.90
10316;DHT22;5203;48.976;8.306;2023-05-28T11:44:58;29.20;27.00
10316;DHT22;5203;48.976;8.306;2023-05-28T11:47:24;29.10;26.60
10316;DHT22;5203;48.976;8.306;2023-05-28T11:49:51;29.10;27.30
10316;DHT22;5203;48.976;8.306;2023-05-28T11:52:24;29.50;26.00
10316;DHT22;5203;48.976;8.306;2023-05-28T11:54:57;30.00;26.00
10316;DHT22;5203;48.976;8.306;2023-05-28T11:57:27;29.70;26.00
10316;DHT22;5203;48.976;8.306;2023-05-28T11:59:55;29.40;26.30
10316;DHT22;5203;48.976;8.306;2023-05-28T12:02:22;29.50;26.20
10316;DHT22;5203;48.976;8.306;2023-05-28T12:07:34;29.60;24.70
10316;DHT22;5203;48.976;8.306;2023-05-28T12:10:08;29.70;24.60
10316;DHT22;5203;48.976;8.306;2023-05-28T12:12:37;30.00;24.70
10316;DHT22;5203;48.976;8.306;2023-05-28T12:15:05;30.00;25.30
10316;DHT22;5203;48.976;8.306;2023-05-28T12:17:38;30.60;25.10
10316;DHT22;5203;48.976;8.306;2023-05-28T12:22:39;30.70;24.20
10316;DHT22;5203;48.976;8.306;2023-05-28T12:25:05;30.90;22.60
10316;DHT22;5203;48.976;8.306;2023-05-28T12:27:31;30.80;22.60
10316;DHT22;5203;48.976;8.306;2023-05-28T12:29:57;30.50;23.60
10316;DHT22;5203;48.976;8.306;2023-05-28T12:32:23;30.90;24.30
10316;DHT22;5203;48.976;8.306;2023-05-28T12:34:49;31.30;22.90
10316;DHT22;5203;48.976;8.306;2023-05-28T12:37:17;31.40;23.20
10316;DHT22;5203;48.976;8.306;2023-05-28T12:39:43;31.60;22.40
10316;DHT22;5203;48.976;8.306;2023-05-28T12:42:09;31.50;22.20
10316;DHT22;5203;48.976;8.306;2023-05-28T12:44:34;31.20;22.30
10316;DHT22;5203;48.976;8.306;2023-05-28T12:47:00;31.10;20.40
10316;DHT22;5203;48.976;8.306;2023-05-28T12:49:26;31.30;21.00
10316;DHT22;5203;48.976;8.306;2023-05-28T12:51:51;31.30;22.30
10316;DHT22;5203;48.976;8.306;2023-05-28T12:54:17;31.40;21.90
10316;DHT22;5203;48.976;8.306;2023-05-28T12:56:42;32.00;21.70
10316;DHT22;5203;48.976;8.306;2023-05-28T12:59:12;31.40;22.70
10316;DHT22;5203;48.976;8.306;2023-05-28T13:01:45;31.20;23.10
10316;DHT22;5203;48.976;8.306;2023-05-28T13:04:11;31.50;23.20
10316;DHT22;5203;48.976;8.306;2023-05-28T13:06:36;31.70;22.90
10316;DHT22;5203;48.976;8.306;2023-05-28T13:09:02;31.50;23.10
10316;DHT22;5203;48.976;8.306;2023-05-28T13:11:29;31.30;23.40
10316;DHT22;5203;48.976;8.306;2023-05-28T13:13:55;32.00;23.00
10316;DHT22;5203;48.976;8.306;2023-05-28T13:16:20;32.60;22.00
10316;DHT22;5203;48.976;8.306;2023-05-28T13:18:46;32.10;22.10
10316;DHT22;5203;48.976;8.306;2023-05-28T13:21:12;32.00;21.50
10316;DHT22;5203;48.976;8.306;2023-05-28T13:23:38;32.20;21.10
10316;DHT22;5203;48.976;8.306;2023-05-28T13:26:03;32.40;20.80
10316;DHT22;5203;48.976;8.306;2023-05-28T13:28:29;32.20;20.70
10316;DHT22;5203;48.976;8.306;2023-05-28T13:30:55;32.60;21.30
10316;DHT22;5203;48.976;8.306;2023-05-28T13:33:21;32.90;21.30
10316;DHT22;5203;48.976;8.306;2023-05-28T13:35:46;33.20;21.20
10316;DHT22;5203;48.976;8.306;2023-05-28T13:38:12;33.60;20.80
10316;DHT22;5203;48.976;8.306;2023-05-28T13:40:38;33.40;20.60
10316;DHT22;5203;48.976;8.306;2023-05-28T13:43:03;33.50;20.40
10316;DHT22;5203;48.976;8.306;2023-05-28T13:45:29;33.40;20.90
10316;DHT22;5203;48.976;8.306;2023-05-28T13:47:56;33.40;21.10
10316;DHT22;5203;48.976;8.306;2023-05-28T13:50:22;33.20;21.60
10316;DHT22;5203;48.976;8.306;2023-05-28T13:52:48;32.00;21.90
10316;DHT22;5203;48.976;8.306;2023-05-28T13:55:13;31.90;21.90
10316;DHT22;5203;48.976;8.306;2023-05-28T13:57:39;31.90;21.60
10316;DHT22;5203;48.976;8.306;2023-05-28T14:00:06;32.60;21.50
10316;DHT22;5203;48.976;8.306;2023-05-28T14:02:33;32.60;21.20
10316;DHT22;5203;48.976;8.306;2023-05-28T14:04:59;32.50;20.40
10316;DHT22;5203;48.976;8.306;2023-05-28T14:07:24;32.60;20.50
10316;DHT22;5203;48.976;8.306;2023-05-28T14:09:50;32.90;20.80
10316;DHT22;5203;48.976;8.306;2023-05-28T14:12:16;33.30;20.70
10316;DHT22;5203;48.976;8.306;2023-05-28T14:14:41;32.80;20.20
10316;DHT22;5203;48.976;8.306;2023-05-28T14:17:07;32.60;20.40
10316;DHT22;5203;48.976;8.306;2023-05-28T14:19:32;32.70;20.60
10316;DHT22;5203;48.976;8.306;2023-05-28T14:21:58;32.90;19.00
10316;DHT22;5203;48.976;8.306;2023-05-28T14:24:24;33.00;18.20
10316;DHT22;5203;48.976;8.306;2023-05-28T14:26:49;33.10;18.20
10316;DHT22;5203;48.976;8.306;2023-05-28T14:29:15;33.50;18.00
10316;DHT22;5203;48.976;8.306;2023-05-28T14:31:41;33.30;18.70
10316;DHT22;5203;48.976;8.306;2023-05-28T14:34:06;33.00;19.10
10316;DHT22;5203;48.976;8.306;2023-05-28T14:36:32;33.40;18.00
10316;DHT22;5203;48.976;8.306;2023-05-28T14:38:57;33.80;18.50
10316;DHT22;5203;48.976;8.306;2023-05-28T14:41:23;33.90;18.50
10316;DHT22;5203;48.976;8.306;2023-05-28T14:43:48;33.30;19.40
10316;DHT22;5203;48.976;8.306;2023-05-28T14:46:14;33.40;19.30
10316;DHT22;5203;48.976;8.306;2023-05-28T14:48:40;33.10;19.90
10316;DHT22;5203;48.976;8.306;2023-05-28T14:51:05;33.10;20.20
10316;DHT22;5203;48.976;8.306;2023-05-28T14:53:32;33.40;20.10
10316;DHT22;5203;48.976;8.306;2023-05-28T14:55:58;33.50;20.10
10316;DHT22;5203;48.976;8.306;2023-05-28T14:58:24;33.90;19.60
10316;DHT22;5203;48.976;8.306;2023-05-28T15:00:49;34.40;19.60
10316;DHT22;5203;48.976;8.306;2023-05-28T15:03:15;34.60;19.40
10316;DHT22;5203;48.976;8.306;2023-05-28T15:05:41;34.60;19.70
10316;DHT22;5203;48.976;8.306;2023-05-28T15:08:07;34.40;19.80
10316;DHT22;5203;48.976;8.306;2023-05-28T15:10:32;34.20;20.30
10316;DHT22;5203;48.976;8.306;2023-05-28T15:12:58;33.50;20.50
10316;DHT22;5203;48.976;8.306;2023-05-28T15:15:24;33.60;20.40
10316;DHT22;5203;48.976;8.306;2023-05-28T15:17:51;34.00;20.30
10316;DHT22;5203;48.976;8.306;2023-05-28T15:20:16;34.00;20.70
10316;DHT22;5203;48.976;8.306;2023-05-28T15:22:42;34.50;20.20
10316;DHT22;5203;48.976;8.306;2023-05-28T15:25:08;33.70;20.50
10316;DHT22;5203;48.976;8.306;2023-05-28T15:27:34;33.50;21.10
10316;DHT22;5203;48.976;8.306;2023-05-28T15:30:00;33.40;21.30
10316;DHT22;5203;48.976;8.306;2023-05-28T15:32:25;33.50;20.80
10316;DHT22;5203;48.976;8.306;2023-05-28T15:34:51;33.60;21.00
10316;DHT22;5203;48.976;8.306;2023-05-28T15:37:17;33.70;20.50
10316;DHT22;5203;48.976;8.306;2023-05-28T15:39:43;34.00;20.10
10316;DHT22;5203;48.976;8.306;2023-05-28T15:42:09;33.80;20.60
10316;DHT22;5203;48.976;8.306;2023-05-28T15:44:36;33.80;20.10
10316;DHT22;5203;48.976;8.306;2023-05-28T15:47:02;33.00;21.10
10316;DHT22;5203;48.976;8.306;2023-05-28T15:49:29;32.90;21.10
10316;DHT22;5203;48.976;8.306;2023-05-28T15:51:57;33.30;20.80
10316;DHT22;5203;48.976;8.306;2023-05-28T15:54:23;33.60;20.90
10316;DHT22;5203;48.976;8.306;2023-05-28T15:56:49;34.30;20.30
10316;DHT22;5203;48.976;8.306;2023-05-28T15:59:15;34.30;20.60
10316;DHT22;5203;48.976;8.306;2023-05-28T16:01:41;34.40;20.30
10316;DHT22;5203;48.976;8.306;2023-05-28T16:04:09;34.70;20.40
10316;DHT22;5203;48.976;8.306;2023-05-28T16:06:34;34.30;20.70
10316;DHT22;5203;48.976;8.306;2023-05-28T16:09:01;34.60;20.60
10316;DHT22;5203;48.976;8.306;2023-05-28T16:11:28;34.30;21.00